Time;durP1;ratioP1;P1;durP2;ratioP2;P2;SDS_P1;SDS_P2;PMS_P1;PMS_P2;Temp;Humidity;BMP_temperature;BMP_pressure;BME280_temperature;BME280_humidity;BME280_pressure;Samples;Min_cycle;Max_cycle;Signal;HPM_P1;HPM_P2
2023/03/25 00:00:57;;;;;;;24.87;4.33;;;10.10;99.90;;;;;;5135618;27;20268;-79
2023/03/25 00:03:25;;;;;;;24.30;4.23;;;10.10;99.90;;;;;;5135613;27;20277;-79
2023/03/25 00:05:51;;;;;;;23.57;3.90;;;10.20;99.90;;;;;;5135158;27;20513;-79
2023/03/25 00:08:17;;;;;;;24.07;4.83;;;10.10;99.90;;;;;;5135379;27;20296;-79
2023/03/25 00:10:43;;;;;;;18.87;3.73;;;10.10;99.90;;;;;;5134405;27;20348;-78
2023/03/25 00:13:12;;;;;;;20.73;4.03;;;10.20;99.90;;;;;;5135468;27;20055;-79
2023/03/25 00:15:44;;;;;;;26.50;4.47;;;10.20;99.90;;;;;;5134878;27;20046;-79
2023/03/25 00:18:11;;;;;;;22.13;4.70;;;10.20;99.90;;;;;;5135594;27;20632;-78
2023/03/25 00:20:39;;;;;;;27.03;4.67;;;10.10;99.90;;;;;;5134931;27;20289;-79
2023/03/25 00:23:06;;;;;;;19.20;4.80;;;10.10;99.90;;;;;;5135214;27;20276;-78
2023/03/25 00:25:33;;;;;;;21.50;4.27;;;10.10;99.90;;;;;;5135051;27;20764;-78
2023/03/25 00:27:59;;;;;;;23.63;4.23;;;10.10;99.90;;;;;;5134930;27;20300;-78
2023/03/25 00:30:25;;;;;;;22.27;5.00;;;10.10;99.90;;;;;;5135034;27;20280;-79
2023/03/25 00:32:51;;;;;;;27.20;4.27;;;10.10;99.90;;;;;;5134812;27;20055;-79
2023/03/25 00:35:21;;;;;;;25.40;5.13;;;10.10;99.90;;;;;;5135068;27;20390;-79
2023/03/25 00:37:51;;;;;;;24.40;5.40;;;10.10;99.90;;;;;;5134683;27;20277;-78
2023/03/25 00:40:16;;;;;;;25.47;5.27;;;10.10;99.90;;;;;;5134945;27;20288;-79
2023/03/25 00:42:43;;;;;;;24.67;4.40;;;10.00;99.90;;;;;;5134437;27;20767;-79
2023/03/25 00:45:13;;;;;;;26.10;5.43;;;10.00;99.90;;;;;;5134762;27;20051;-80
2023/03/25 00:47:38;;;;;;;28.80;5.90;;;9.90;99.90;;;;;;5134405;27;20297;-78
2023/03/25 00:50:05;;;;;;;24.50;4.80;;;9.90;99.90;;;;;;5134637;27;20280;-79
2023/03/25 00:52:30;;;;;;;26.57;4.80;;;9.90;99.90;;;;;;5116587;27;20042;-79
2023/03/25 00:54:56;;;;;;;30.53;5.70;;;9.90;99.90;;;;;;5134148;27;21255;-78
2023/03/25 00:57:22;;;;;;;23.63;5.00;;;9.80;99.90;;;;;;5134499;27;20046;-79
2023/03/25 00:59:48;;;;;;;28.07;4.93;;;9.80;99.90;;;;;;5134227;27;20051;-78
2023/03/25 01:02:15;;;;;;;22.47;5.37;;;9.80;99.90;;;;;;5134542;27;20043;-78
2023/03/25 01:04:44;;;;;;;30.13;4.93;;;9.80;99.90;;;;;;5116235;27;20390;-78
2023/03/25 01:07:11;;;;;;;24.73;4.93;;;9.80;99.90;;;;;;5134314;27;20304;-78
2023/03/25 01:09:38;;;;;;;22.47;6.23;;;9.80;99.90;;;;;;5134184;27;20342;-78
2023/03/25 01:12:04;;;;;;;23.30;4.60;;;9.80;99.90;;;;;;5134557;27;20700;-78
2023/03/25 01:14:30;;;;;;;26.90;5.07;;;9.80;99.90;;;;;;5116308;27;20324;-78
2023/03/25 01:16:58;;;;;;;33.30;5.60;;;9.80;99.90;;;;;;5133719;27;20371;-78
2023/03/25 01:19:24;;;;;;;30.47;5.20;;;9.80;99.90;;;;;;5116191;27;20116;-78
2023/03/25 01:21:50;;;;;;;27.83;5.23;;;9.80;99.90;;;;;;5133153;27;20281;-78
2023/03/25 01:24:16;;;;;;;29.37;4.97;;;9.70;99.90;;;;;;5134363;27;20039;-79
2023/03/25 01:26:42;;;;;;;27.47;5.13;;;9.80;99.90;;;;;;5133852;27;20293;-77
2023/03/25 01:29:10;;;;;;;26.43;4.60;;;9.80;99.90;;;;;;5134102;27;20682;-78
2023/03/25 01:31:35;;;;;;;27.20;5.10;;;9.80;99.90;;;;;;5115880;27;20289;-79
2023/03/25 01:34:02;;;;;;;32.10;5.93;;;9.70;99.90;;;;;;5133630;27;20290;-79
2023/03/25 01:36:30;;;;;;;29.63;6.00;;;9.70;99.90;;;;;;5134197;27;20091;-79
2023/03/25 01:38:58;;;;;;;24.33;4.43;;;9.70;99.90;;;;;;5133732;27;20295;-78
2023/03/25 01:41:25;;;;;;;29.00;4.90;;;9.70;99.90;;;;;;5133965;27;20279;-79
2023/03/25 01:44:03;;;;;;;29.20;5.97;;;9.70;99.90;;;;;;5133646;28;20279;-78
2023/03/25 01:46:29;;;;;;;28.53;5.37;;;9.70;99.90;;;;;;5134152;28;20288;-79
2023/03/25 01:48:56;;;;;;;27.83;6.00;;;9.70;99.90;;;;;;5133607;28;20272;-78
2023/03/25 01:51:27;;;;;;;32.27;6.50;;;9.70;99.90;;;;;;5134126;28;20055;-78
2023/03/25 01:53:53;;;;;;;25.73;4.60;;;9.70;99.90;;;;;;5133683;28;20273;-78
2023/03/25 01:56:29;;;;;;;32.57;5.73;;;9.70;99.90;;;;;;5134158;28;20283;-78
2023/03/25 01:58:57;;;;;;;27.80;5.97;;;9.70;99.90;;;;;;5133617;28;20157;-78
2023/03/25 02:01:25;;;;;;;31.40;6.17;;;9.70;99.90;;;;;;5133696;28;20318;-78
2023/03/25 02:03:53;;;;;;;36.23;7.07;;;9.70;99.90;;;;;;5133479;28;20292;-78
2023/03/25 02:06:27;;;;;;;33.97;5.80;;;9.70;99.90;;;;;;5115696;28;20311;-77
2023/03/25 02:08:55;;;;;;;29.70;5.37;;;9.70;99.90;;;;;;5133472;28;20277;-77
2023/03/25 02:11:24;;;;;;;39.40;7.10;;;9.70;99.90;;;;;;5133925;28;20280;-77
2023/03/25 02:13:50;;;;;;;41.93;6.83;;;9.70;99.90;;;;;;5114883;28;20288;-77
2023/03/25 02:16:16;;;;;;;33.20;5.97;;;9.60;99.90;;;;;;5115281;28;20334;-77
2023/03/25 02:18:52;;;;;;;31.50;6.87;;;9.70;99.90;;;;;;5133415;28;20379;-78
2023/03/25 02:21:27;;;;;;;30.43;5.70;;;9.70;99.90;;;;;;5133701;28;20058;-77
2023/03/25 02:24:41;;;;;;;33.38;7.03;;;9.70;99.90;;;;;;5133255;28;20433;-77
2023/03/25 02:27:50;;;;;;;25.83;4.77;;;9.70;99.90;;;;;;5133301;28;20082;-77
2023/03/25 02:30:27;;;;;;;38.03;6.87;;;9.70;99.90;;;;;;5111104;28;20285;-78
2023/03/25 02:33:10;;;;;;;30.17;5.63;;;9.70;99.90;;;;;;5135074;27;20289;-77
2023/03/25 02:35:38;;;;;;;36.30;6.77;;;9.70;99.90;;;;;;5137477;27;20272;-77
2023/03/25 02:38:30;;;;;;;30.20;5.20;;;9.70;99.90;;;;;;5136951;27;20304;-77
2023/03/25 02:41:10;;;;;;;29.77;6.97;;;9.60;99.90;;;;;;5106821;27;20301;-77
2023/03/25 02:43:50;;;;;;;27.13;6.53;;;9.60;99.90;;;;;;5137158;27;20280;-77
2023/03/25 02:46:17;;;;;;;25.87;5.30;;;9.60;99.90;;;;;;5137153;27;20324;-77
2023/03/25 02:49:02;;;;;;;35.47;5.70;;;9.60;99.90;;;;;;5137097;27;20644;-77
2023/03/25 02:51:35;;;;;;;29.90;5.23;;;9.60;99.90;;;;;;5137220;27;20716;-77
2023/03/25 02:54:06;;;;;;;29.87;5.70;;;9.60;99.90;;;;;;5136778;27;20693;-77
2023/03/25 02:56:34;;;;;;;23.83;5.07;;;9.60;99.90;;;;;;5137144;27;20690;-77
2023/03/25 02:59:01;;;;;;;28.23;5.90;;;9.60;99.90;;;;;;5136624;27;20352;-77
2023/03/25 03:01:27;;;;;;;23.67;5.40;;;9.60;99.90;;;;;;5136939;27;20316;-77
2023/03/25 03:03:54;;;;;;;29.80;4.80;;;9.60;99.90;;;;;;5136371;27;20312;-77
2023/03/25 03:06:21;;;;;;;26.80;5.17;;;9.60;99.90;;;;;;5136682;27;20200;-77
2023/03/25 03:09:10;;;;;;;25.77;5.23;;;9.60;99.90;;;;;;5136658;27;20281;-77
2023/03/25 03:11:58;;;;;;;23.80;5.43;;;9.60;99.90;;;;;;5136810;27;20276;-78
2023/03/25 03:14:44;;;;;;;30.37;5.70;;;9.60;99.90;;;;;;5136817;27;20618;-78
2023/03/25 03:17:35;;;;;;;29.63;5.90;;;9.60;99.90;;;;;;5135829;27;20501;-77
2023/03/25 03:20:39;;;;;;;29.60;6.47;;;9.60;99.90;;;;;;5118026;27;20402;-78
2023/03/25 03:23:11;;;;;;;27.37;5.77;;;9.60;99.90;;;;;;5104301;27;20403;-77
2023/03/25 03:26:03;;;;;;;32.47;5.80;;;9.70;99.90;;;;;;5136461;27;20287;-77
2023/03/25 03:28:45;;;;;;;36.17;6.87;;;9.60;99.90;;;;;;5136344;27;20300;-78
2023/03/25 03:31:23;;;;;;;27.00;5.40;;;9.60;99.90;;;;;;5117768;27;20412;-77
2023/03/25 03:33:57;;;;;;;28.93;6.50;;;9.60;99.90;;;;;;5136285;27;20325;-78
2023/03/25 03:36:30;;;;;;;35.63;6.30;;;9.60;99.90;;;;;;5118213;27;20328;-78
2023/03/25 03:39:04;;;;;;;28.70;4.70;;;9.60;99.90;;;;;;5136022;27;20112;-78
2023/03/25 03:41:36;;;;;;;31.10;5.47;;;9.60;99.90;;;;;;5136190;27;20277;-78
2023/03/25 03:44:13;;;;;;;29.17;6.23;;;9.60;99.90;;;;;;5134912;27;20091;-78
2023/03/25 03:47:09;;;;;;;28.13;5.50;;;9.60;99.90;;;;;;5136145;27;20297;-78
2023/03/25 03:49:39;;;;;;;29.63;5.63;;;9.60;99.90;;;;;;5133266;27;20300;-78
2023/03/25 03:52:12;;;;;;;28.80;5.77;;;9.60;99.90;;;;;;5135603;27;20324;-78
2023/03/25 03:54:50;;;;;;;29.20;5.30;;;9.60;99.90;;;;;;5135791;27;20277;-78
2023/03/25 03:57:28;;;;;;;22.33;5.67;;;9.60;99.90;;;;;;5135523;27;20380;-78
2023/03/25 04:00:08;;;;;;;27.87;6.03;;;9.60;99.90;;;;;;5135650;27;20779;-78
2023/03/25 04:02:57;;;;;;;28.80;6.23;;;9.60;99.90;;;;;;5135892;27;20650;-78
2023/03/25 04:05:29;;;;;;;36.03;5.70;;;9.60;99.90;;;;;;5117499;27;20772;-78
2023/03/25 04:08:10;;;;;;;25.33;5.10;;;9.60;99.90;;;;;;5135697;27;20297;-78
2023/03/25 04:10:45;;;;;;;34.23;5.90;;;9.60;99.90;;;;;;5135566;27;20304;-78
2023/03/25 04:13:14;;;;;;;26.92;4.55;;;9.60;99.90;;;;;;5135207;27;20284;-78
2023/03/25 04:15:42;;;;;;;31.50;5.47;;;9.60;99.90;;;;;;5135121;27;20454;-78
2023/03/25 04:18:08;;;;;;;29.37;6.63;;;9.60;99.90;;;;;;5116785;27;20296;-78
2023/03/25 04:20:35;;;;;;;27.20;5.67;;;9.60;99.90;;;;;;5117080;27;20280;-79
2023/03/25 04:23:04;;;;;;;29.50;6.77;;;9.60;99.90;;;;;;5099913;27;20360;-78
2023/03/25 04:25:31;;;;;;;28.97;5.80;;;9.60;99.90;;;;;;5135219;27;20448;-78
2023/03/25 04:27:58;;;;;;;29.27;6.77;;;9.60;99.90;;;;;;5116842;27;20866;-78
2023/03/25 04:30:26;;;;;;;29.23;5.57;;;9.60;99.90;;;;;;5134917;27;20360;-78
2023/03/25 04:32:52;;;;;;;32.03;5.33;;;9.60;99.90;;;;;;5117002;27;20272;-78
2023/03/25 04:35:18;;;;;;;25.77;5.60;;;9.60;99.90;;;;;;5134430;27;20418;-77
2023/03/25 04:37:45;;;;;;;23.53;5.30;;;9.60;99.90;;;;;;5134973;27;20119;-77
2023/03/25 04:40:15;;;;;;;31.80;6.30;;;9.60;99.90;;;;;;5134632;27;20624;-77
2023/03/25 04:42:41;;;;;;;33.33;6.30;;;9.60;99.90;;;;;;5134959;27;20383;-77
2023/03/25 04:45:13;;;;;;;28.70;5.47;;;9.60;99.90;;;;;;5134437;27;20273;-78
2023/03/25 04:47:45;;;;;;;24.20;4.80;;;9.60;99.90;;;;;;5135010;27;20296;-78
2023/03/25 04:50:22;;;;;;;28.90;5.77;;;9.50;99.90;;;;;;5116410;27;20783;-78
2023/03/25 04:52:56;;;;;;;30.27;5.97;;;9.60;99.90;;;;;;5134714;27;20276;-78
2023/03/25 04:55:24;;;;;;;26.20;4.83;;;9.60;99.90;;;;;;5134314;27;20280;-78
2023/03/25 04:57:51;;;;;;;29.73;7.30;;;9.50;99.90;;;;;;5134607;27;20280;-78
2023/03/25 05:00:21;;;;;;;30.97;6.47;;;9.50;99.90;;;;;;5134315;27;20273;-78
2023/03/25 05:02:48;;;;;;;31.57;5.43;;;9.50;99.90;;;;;;5134554;27;20273;-78
2023/03/25 05:05:19;;;;;;;29.13;5.77;;;9.50;99.90;;;;;;5115980;27;20730;-78
2023/03/25 05:07:48;;;;;;;26.23;5.83;;;9.50;99.90;;;;;;5134516;27;20346;-79
2023/03/25 05:10:15;;;;;;;28.80;6.23;;;9.50;99.90;;;;;;5133902;27;20289;-78
2023/03/25 05:12:41;;;;;;;35.70;6.57;;;9.50;99.90;;;;;;5115730;27;20801;-79
2023/03/25 05:15:08;;;;;;;34.70;6.30;;;9.40;99.90;;;;;;5134068;27;20289;-78
2023/03/25 05:17:34;;;;;;;31.53;5.63;;;9.40;99.90;;;;;;5134476;27;20372;-78
2023/03/25 05:20:00;;;;;;;32.60;6.40;;;9.40;99.90;;;;;;5134424;27;20799;-78
2023/03/25 05:22:26;;;;;;;43.73;7.00;;;9.50;99.90;;;;;;5133988;27;20467;-78
2023/03/25 05:24:52;;;;;;;32.90;6.67;;;9.40;99.90;;;;;;5134141;27;20079;-78
2023/03/25 05:27:21;;;;;;;32.53;6.83;;;9.40;99.90;;;;;;5115697;27;20467;-78
2023/03/25 05:29:46;;;;;;;38.87;6.33;;;9.40;99.90;;;;;;5115714;27;20289;-78
2023/03/25 05:32:16;;;;;;;30.77;7.00;;;9.30;99.90;;;;;;5133796;27;20281;-77
2023/03/25 05:34:48;;;;;;;34.63;6.97;;;9.40;99.90;;;;;;5099362;27;20467;-78
2023/03/25 05:37:13;;;;;;;35.17;7.23;;;9.40;99.90;;;;;;5133815;27;20288;-78
2023/03/25 05:39:39;;;;;;;43.67;7.63;;;9.40;99.90;;;;;;5116210;28;20292;-78
2023/03/25 05:42:05;;;;;;;27.67;5.83;;;9.40;99.90;;;;;;5133941;27;20121;-78
2023/03/25 05:44:31;;;;;;;36.03;6.20;;;9.40;99.90;;;;;;5133687;28;20055;-78
2023/03/25 05:47:00;;;;;;;34.27;6.40;;;9.40;99.90;;;;;;5133910;28;20297;-78
2023/03/25 05:49:27;;;;;;;29.07;6.53;;;9.40;99.90;;;;;;5133676;28;20074;-79
2023/03/25 05:51:54;;;;;;;33.53;5.97;;;9.40;99.90;;;;;;5134105;28;20277;-79
2023/03/25 05:54:23;;;;;;;37.57;6.13;;;9.40;99.90;;;;;;5133550;28;20301;-78
2023/03/25 05:56:52;;;;;;;33.50;8.30;;;9.40;99.90;;;;;;5134133;28;20284;-78
2023/03/25 05:59:19;;;;;;;22.97;5.40;;;9.50;99.90;;;;;;5133534;28;20287;-78
2023/03/25 06:01:45;;;;;;;28.97;5.87;;;9.50;99.90;;;;;;5133805;28;20277;-78
2023/03/25 06:04:12;;;;;;;26.57;5.73;;;9.50;99.90;;;;;;5133883;28;20696;-77
2023/03/25 06:06:38;;;;;;;34.63;6.50;;;9.50;99.90;;;;;;5133368;27;20043;-77
2023/03/25 06:09:04;;;;;;;29.47;6.03;;;9.40;99.90;;;;;;5119673;27;20349;-78
2023/03/25 06:11:36;;;;;;;29.40;5.57;;;9.40;99.90;;;;;;5137704;27;20284;-77
2023/03/25 06:14:06;;;;;;;33.97;6.50;;;9.40;99.90;;;;;;5119515;27;20355;-77
2023/03/25 06:16:32;;;;;;;27.67;5.20;;;9.40;99.90;;;;;;5137398;27;20748;-78
2023/03/25 06:18:59;;;;;;;23.77;4.87;;;9.40;99.90;;;;;;5137732;27;20363;-78
2023/03/25 06:21:26;;;;;;;28.50;5.07;;;9.40;99.90;;;;;;5137435;27;20275;-77
2023/03/25 06:23:53;;;;;;;27.27;6.17;;;9.40;99.90;;;;;;5119525;27;20312;-77
2023/03/25 06:26:21;;;;;;;29.60;6.10;;;9.40;99.90;;;;;;5136866;27;20316;-77
2023/03/25 06:28:47;;;;;;;33.93;5.83;;;9.40;99.90;;;;;;5137059;27;20843;-77
2023/03/25 06:31:16;;;;;;;23.63;5.93;;;9.40;99.90;;;;;;5137456;27;20281;-77
2023/03/25 06:33:46;;;;;;;26.57;4.97;;;9.40;99.90;;;;;;5137499;27;20281;-77
2023/03/25 06:36:17;;;;;;;28.77;5.73;;;9.40;99.90;;;;;;5137264;27;20280;-77
2023/03/25 06:38:44;;;;;;;31.03;5.37;;;9.50;99.90;;;;;;5137258;27;20334;-77
2023/03/25 06:41:10;;;;;;;27.50;5.77;;;9.50;99.90;;;;;;5137187;27;20284;-78
2023/03/25 06:43:36;;;;;;;25.67;5.50;;;9.50;99.90;;;;;;5136816;27;20307;-77
2023/03/25 06:46:02;;;;;;;29.37;5.20;;;9.60;99.90;;;;;;5145379;27;20613;-78
2023/03/25 06:48:28;;;;;;;24.47;4.90;;;9.60;99.90;;;;;;5139065;27;20366;-78
2023/03/25 06:50:54;;;;;;;31.40;5.03;;;9.70;99.90;;;;;;5157843;27;20470;-79
2023/03/25 06:53:19;;;;;;;31.30;6.27;;;9.60;99.90;;;;;;5157531;27;20487;-78
2023/03/25 06:55:45;;;;;;;27.60;4.77;;;9.60;99.90;;;;;;5157724;27;20333;-78
2023/03/25 06:58:11;;;;;;;26.70;5.17;;;9.60;99.90;;;;;;5157705;27;20035;-78
2023/03/25 07:00:37;;;;;;;26.37;5.10;;;9.60;99.90;;;;;;5157429;27;20047;-77
2023/03/25 07:03:03;;;;;;;29.27;5.27;;;9.50;99.90;;;;;;5139088;27;20554;-78
2023/03/25 07:05:29;;;;;;;22.87;4.80;;;9.50;99.90;;;;;;5157335;27;20363;-78
2023/03/25 07:07:55;;;;;;;27.63;4.57;;;9.60;99.90;;;;;;5157473;27;20462;-78
2023/03/25 07:10:20;;;;;;;24.67;5.10;;;9.60;99.90;;;;;;5156792;27;20086;-77
2023/03/25 07:12:46;;;;;;;22.37;5.23;;;9.70;99.90;;;;;;5157410;27;20053;-78
2023/03/25 07:15:12;;;;;;;26.37;4.63;;;9.70;99.90;;;;;;5157330;27;20035;-78
2023/03/25 07:17:38;;;;;;;26.83;5.53;;;9.70;99.90;;;;;;5157092;27;20126;-80
2023/03/25 07:20:05;;;;;;;21.20;5.23;;;9.70;99.90;;;;;;5137433;27;20372;-81
2023/03/25 07:22:31;;;;;;;21.40;4.30;;;9.70;99.90;;;;;;5156872;27;20043;-81
2023/03/25 07:24:57;;;;;;;20.97;3.93;;;9.60;99.90;;;;;;5157174;27;20433;-81
2023/03/25 07:27:24;;;;;;;25.73;4.83;;;9.60;99.90;;;;;;5156765;27;20342;-80
2023/03/25 07:29:49;;;;;;;24.90;4.60;;;9.60;99.90;;;;;;5157177;27;20046;-80
2023/03/25 07:32:15;;;;;;;24.60;5.10;;;9.50;99.90;;;;;;5156697;27;20291;-80
2023/03/25 07:34:41;;;;;;;21.37;3.93;;;9.50;99.90;;;;;;5156762;27;20043;-80
2023/03/25 07:37:07;;;;;;;21.27;4.50;;;9.50;99.90;;;;;;5157070;27;20078;-80
2023/03/25 07:39:34;;;;;;;22.77;4.53;;;9.40;99.90;;;;;;5156635;27;20068;-80
2023/03/25 07:42:00;;;;;;;19.77;4.67;;;9.30;99.90;;;;;;5156911;27;20798;-80
2023/03/25 07:44:26;;;;;;;24.83;5.07;;;9.30;99.90;;;;;;5156493;27;20280;-79
2023/03/25 07:46:51;;;;;;;17.77;4.33;;;9.30;99.90;;;;;;5138294;27;20053;-80
2023/03/25 07:49:17;;;;;;;21.63;4.47;;;9.30;99.90;;;;;;5156719;27;20038;-81
2023/03/25 07:51:44;;;;;;;25.40;4.43;;;9.20;99.90;;;;;;5156391;27;20166;-80
2023/03/25 07:54:10;;;;;;;21.40;4.33;;;9.20;99.90;;;;;;5156701;27;20358;-80
2023/03/25 07:56:36;;;;;;;22.00;3.93;;;9.30;99.90;;;;;;5138002;27;20794;-79
2023/03/25 07:59:03;;;;;;;23.07;3.57;;;9.30;99.90;;;;;;5156229;27;20771;-79
2023/03/25 08:01:29;;;;;;;21.23;3.77;;;9.30;99.90;;;;;;5156302;27;20275;-78
2023/03/25 08:03:56;;;;;;;21.33;3.87;;;9.30;99.90;;;;;;5138098;27;20332;-80
2023/03/25 08:06:22;;;;;;;23.73;5.27;;;9.40;99.90;;;;;;5137925;27;20284;-79
2023/03/25 08:08:47;;;;;;;25.83;4.83;;;9.50;99.90;;;;;;5155978;27;20292;-78
2023/03/25 08:11:13;;;;;;;23.30;5.07;;;9.60;99.90;;;;;;5137607;27;20635;-79
2023/03/25 08:13:39;;;;;;;26.87;4.90;;;9.60;99.90;;;;;;5155935;27;20582;-79
2023/03/25 08:16:11;;;;;;;21.30;4.17;;;9.60;99.90;;;;;;5156099;27;20043;-78
2023/03/25 08:18:36;;;;;;;31.47;5.47;;;9.50;99.90;;;;;;5137498;27;20288;-79
2023/03/25 08:21:02;;;;;;;27.70;4.87;;;9.50;99.90;;;;;;5156045;27;20276;-79
2023/03/25 08:23:28;;;;;;;19.67;4.10;;;9.50;99.90;;;;;;5155760;27;20046;-79
2023/03/25 08:25:53;;;;;;;21.53;4.67;;;9.60;99.90;;;;;;5137661;27;20493;-79
2023/03/25 08:28:23;;;;;;;24.67;4.93;;;9.70;99.90;;;;;;5155515;27;20061;-78
2023/03/25 08:30:54;;;;;;;22.73;4.63;;;9.80;99.90;;;;;;5155139;27;20049;-78
2023/03/25 08:33:25;;;;;;;18.53;4.07;;;9.80;99.90;;;;;;5155967;27;20628;-78
2023/03/25 08:35:51;;;;;;;22.07;3.70;;;9.80;99.90;;;;;;5155668;27;20268;-78
2023/03/25 08:38:17;;;;;;;21.13;3.87;;;9.80;99.90;;;;;;5155623;27;20276;-78
2023/03/25 08:40:43;;;;;;;25.00;5.50;;;9.80;99.90;;;;;;5155326;27;20303;-77
2023/03/25 08:43:10;;;;;;;24.93;4.73;;;9.80;99.90;;;;;;5155621;27;20125;-78
2023/03/25 08:45:36;;;;;;;24.57;4.73;;;9.80;99.90;;;;;;5119923;27;20288;-77
2023/03/25 08:48:03;;;;;;;20.30;4.30;;;9.90;99.90;;;;;;5136850;27;20709;-76
2023/03/25 08:50:29;;;;;;;24.93;4.10;;;10.10;99.90;;;;;;5155485;27;20315;-77
2023/03/25 08:52:58;;;;;;;19.87;4.20;;;10.20;99.90;;;;;;5136685;27;20276;-78
2023/03/25 08:55:24;;;;;;;18.33;4.47;;;10.40;99.90;;;;;;5155427;27;20697;-77
2023/03/25 08:57:50;;;;;;;25.07;4.57;;;10.50;99.90;;;;;;5136775;27;20294;-77
2023/03/25 09:00:17;;;;;;;21.03;4.20;;;10.60;99.90;;;;;;5155328;27;20359;-77
2023/03/25 09:02:43;;;;;;;21.10;4.57;;;10.80;99.90;;;;;;5154834;27;20363;-78
2023/03/25 09:05:11;;;;;;;19.17;3.50;;;11.00;99.90;;;;;;5155130;27;20284;-78
2023/03/25 09:07:37;;;;;;;20.43;4.23;;;11.10;99.90;;;;;;5154927;27;20034;-76
2023/03/25 09:10:17;;;;;;;24.40;3.97;;;11.10;99.90;;;;;;5111036;27;20396;-78
2023/03/25 09:12:43;;;;;;;29.20;5.50;;;11.20;99.90;;;;;;5110647;28;20311;-79
2023/03/25 09:15:10;;;;;;;21.00;3.90;;;11.20;99.90;;;;;;5110869;28;20626;-78
2023/03/25 09:17:36;;;;;;;23.73;4.50;;;11.20;99.90;;;;;;5109732;28;20061;-78
2023/03/25 09:20:02;;;;;;;17.20;3.50;;;11.30;99.90;;;;;;5110786;28;20796;-77
2023/03/25 09:22:28;;;;;;;19.30;4.63;;;11.20;99.90;;;;;;5109534;28;20285;-79
2023/03/25 09:24:54;;;;;;;19.00;3.80;;;11.30;99.90;;;;;;5108568;28;20835;-78
2023/03/25 09:27:19;;;;;;;22.30;4.27;;;11.30;99.90;;;;;;5109873;28;20118;-79
2023/03/25 09:29:45;;;;;;;20.53;3.67;;;11.30;99.90;;;;;;5107152;28;20040;-77
2023/03/25 09:32:11;;;;;;;18.13;3.80;;;11.20;99.90;;;;;;5110776;28;20044;-78
2023/03/25 09:34:37;;;;;;;16.53;3.03;;;11.10;99.90;;;;;;5092464;28;20472;-78
2023/03/25 09:37:03;;;;;;;17.90;3.83;;;11.10;99.90;;;;;;5110655;28;20043;-78
2023/03/25 09:39:30;;;;;;;20.00;4.00;;;11.00;99.90;;;;;;5108823;28;20338;-78
2023/03/25 09:42:10;;;;;;;19.87;4.40;;;10.90;99.90;;;;;;5109825;28;20052;-77
2023/03/25 09:45:03;;;;;;;19.67;3.63;;;10.90;99.90;;;;;;5091711;28;20286;-78
2023/03/25 09:47:32;;;;;;;19.23;4.10;;;10.80;99.90;;;;;;5110664;28;20668;-78
2023/03/25 09:50:05;;;;;;;16.97;3.40;;;10.90;99.90;;;;;;5110107;28;20297;-73
2023/03/25 09:52:46;;;;;;;19.83;3.93;;;10.80;99.90;;;;;;5108610;28;20652;-76
2023/03/25 09:55:21;;;;;;;22.27;5.07;;;10.80;99.90;;;;;;5107838;28;20642;-76
2023/03/25 09:57:50;;;;;;;18.48;4.63;;;10.80;99.90;;;;;;5109706;28;20350;-77
2023/03/25 10:00:23;;;;;;;22.93;4.83;;;10.90;99.90;;;;;;5106415;28;20047;-78
2023/03/25 10:03:04;;;;;;;22.37;4.80;;;10.90;99.90;;;;;;5106822;28;20338;-83
2023/03/25 10:05:50;;;;;;;24.87;5.60;;;10.90;99.90;;;;;;5094897;28;20369;-78
2023/03/25 10:08:46;;;;;;;16.67;4.40;;;11.00;99.90;;;;;;5107488;28;20309;-82
2023/03/25 10:11:24;;;;;;;22.17;5.07;;;11.00;99.90;;;;;;5095052;28;20305;-83
2023/03/25 10:13:57;;;;;;;20.17;4.07;;;11.10;99.90;;;;;;5107559;28;20094;-83
2023/03/25 10:16:52;;;;;;;20.73;4.70;;;11.10;99.90;;;;;;5115766;28;20286;-82
2023/03/25 10:19:41;;;;;;;25.83;4.53;;;11.10;99.90;;;;;;5107400;28;20282;-83
2023/03/25 10:22:27;;;;;;;21.53;5.03;;;11.10;99.90;;;;;;5092821;28;20294;-83
2023/03/25 10:25:04;;;;;;;25.33;4.57;;;11.20;99.90;;;;;;5078483;28;20293;-83
2023/03/25 10:27:45;;;;;;;17.30;4.40;;;11.20;99.90;;;;;;5094827;28;20377;-80
2023/03/25 10:30:17;;;;;;;20.67;4.57;;;11.20;99.90;;;;;;5097070;28;20721;-76
2023/03/25 10:32:48;;;;;;;24.60;5.23;;;11.10;99.90;;;;;;5092167;28;20341;-74
2023/03/25 10:35:44;;;;;;;20.20;3.73;;;11.20;99.90;;;;;;5099785;28;20281;-79
2023/03/25 10:38:20;;;;;;;18.03;4.60;;;11.20;99.90;;;;;;5092909;28;20325;-79
2023/03/25 10:40:49;;;;;;;19.07;4.30;;;11.30;99.90;;;;;;5100091;28;20293;-81
2023/03/25 10:43:30;;;;;;;25.33;4.47;;;11.30;99.90;;;;;;5094818;28;20775;-79
2023/03/25 10:46:03;;;;;;;18.20;4.23;;;11.40;99.90;;;;;;5076828;28;20294;-80
2023/03/25 10:48:30;;;;;;;22.10;4.30;;;11.50;99.90;;;;;;5093234;28;20329;-79
2023/03/25 10:51:02;;;;;;;21.57;4.43;;;11.60;99.90;;;;;;5092553;28;20286;-78
2023/03/25 10:53:28;;;;;;;20.50;3.83;;;11.60;99.90;;;;;;5093396;28;20297;-78
2023/03/25 10:56:16;;;;;;;18.50;3.70;;;11.70;99.90;;;;;;5095842;28;20301;-79
2023/03/25 10:58:46;;;;;;;20.27;4.60;;;11.80;99.90;;;;;;5075041;28;20311;-79
2023/03/25 11:01:18;;;;;;;14.27;3.47;;;11.90;99.90;;;;;;5090556;28;20815;-81
2023/03/25 11:03:48;;;;;;;15.77;3.63;;;11.90;99.90;;;;;;5093126;28;20289;-78
2023/03/25 11:06:44;;;;;;;20.80;3.97;;;12.00;99.90;;;;;;5090243;28;20309;-81
2023/03/25 11:09:24;;;;;;;15.60;3.90;;;12.00;99.90;;;;;;5089024;28;20401;-82
2023/03/25 11:11:51;;;;;;;18.33;3.77;;;12.00;99.90;;;;;;5074101;28;20773;-77
2023/03/25 11:14:23;;;;;;;19.77;3.93;;;12.00;99.90;;;;;;5089422;28;20415;-82
2023/03/25 11:17:08;;;;;;;16.57;4.27;;;12.00;99.90;;;;;;5099725;28;20725;-78
2023/03/25 11:19:45;;;;;;;19.43;3.60;;;12.00;99.90;;;;;;5094271;28;20352;-81
2023/03/25 11:22:29;;;;;;;15.43;3.60;;;11.90;99.90;;;;;;5093088;28;20807;-81
2023/03/25 11:25:05;;;;;;;19.10;3.80;;;11.90;99.90;;;;;;5095115;28;20786;-79
2023/03/25 11:27:47;;;;;;;19.50;4.10;;;11.90;99.90;;;;;;5091200;28;20317;-81
2023/03/25 11:30:19;;;;;;;13.30;3.63;;;11.80;99.90;;;;;;5097712;28;20298;-79
2023/03/25 11:33:02;;;;;;;18.83;3.87;;;11.80;99.90;;;;;;5091100;28;20307;-81
2023/03/25 11:35:30;;;;;;;14.00;3.10;;;11.90;99.90;;;;;;5079369;28;20290;-79
2023/03/25 11:37:59;;;;;;;15.10;3.73;;;12.00;99.90;;;;;;5091490;28;20754;-83
2023/03/25 11:40:28;;;;;;;19.60;4.30;;;12.00;99.90;;;;;;5093332;28;20290;-79
2023/03/25 11:42:57;;;;;;;17.00;3.70;;;12.00;99.90;;;;;;5093229;28;20293;-79
2023/03/25 11:45:30;;;;;;;19.47;3.87;;;12.00;99.90;;;;;;5094413;28;20317;-79
2023/03/25 11:48:07;;;;;;;18.30;3.53;;;12.10;99.90;;;;;;5094070;28;20285;-78
2023/03/25 11:50:34;;;;;;;14.67;3.07;;;12.10;99.90;;;;;;5093340;28;20335;-78
2023/03/25 11:53:02;;;;;;;14.30;3.50;;;12.20;99.90;;;;;;5094029;28;20802;-78
2023/03/25 11:55:30;;;;;;;17.77;3.97;;;12.20;99.90;;;;;;5094550;28;20286;-75
2023/03/25 11:57:59;;;;;;;17.03;3.57;;;12.10;99.90;;;;;;5092934;28;20374;-79
2023/03/25 12:00:37;;;;;;;21.97;3.83;;;12.20;99.90;;;;;;5093126;28;20373;-83
2023/03/25 12:03:13;;;;;;;25.23;4.87;;;12.20;99.90;;;;;;5075947;28;20297;-81
2023/03/25 12:05:39;;;;;;;;;;;12.20;99.90;;;;;;5094436;28;20319;-81
2023/03/25 12:08:16;;;;;;;16.97;3.40;;;12.20;99.90;;;;;;5093649;28;19920;-80
2023/03/25 12:11:11;;;;;;;14.80;3.77;;;12.20;99.90;;;;;;5092913;28;20290;-80
2023/03/25 12:13:51;;;;;;;17.43;3.83;;;12.30;99.90;;;;;;5083006;28;20295;-78
2023/03/25 12:16:28;;;;;;;17.07;3.63;;;12.30;99.90;;;;;;5091164;28;20325;-80
2023/03/25 12:19:12;;;;;;;14.77;3.83;;;12.30;99.90;;;;;;5092230;28;20341;-76
2023/03/25 12:21:49;;;;;;;17.13;3.43;;;12.30;99.90;;;;;;5074022;28;20333;-82
2023/03/25 12:24:37;;;;;;;14.20;3.80;;;12.30;99.90;;;;;;5092334;28;20556;-80
2023/03/25 12:27:03;;;;;;;16.27;5.07;;;12.40;99.90;;;;;;5075864;28;20359;-81
2023/03/25 12:30:06;;;;;;;13.43;3.60;;;12.40;99.90;;;;;;5091327;28;20301;-80
2023/03/25 12:32:59;;;;;;;12.87;3.57;;;12.40;99.90;;;;;;5082508;28;20054;-77
2023/03/25 12:35:41;;;;;;;14.10;3.30;;;12.50;99.90;;;;;;5069962;28;20294;-84
2023/03/25 12:38:25;;;;;;;15.87;3.33;;;12.60;99.90;;;;;;5086135;28;20294;-78
2023/03/25 12:40:57;;;;;;;15.73;3.47;;;12.60;99.90;;;;;;5083983;28;20722;-80
2023/03/25 12:43:37;;;;;;;17.63;3.03;;;12.60;99.90;;;;;;5079146;28;20286;-80
2023/03/25 12:46:17;;;;;;;15.50;3.63;;;12.50;99.90;;;;;;5089590;28;20286;-78
2023/03/25 12:48:55;;;;;;;21.73;4.27;;;12.60;99.90;;;;;;5089969;28;20298;-77
2023/03/25 12:51:24;;;;;;;18.40;5.07;;;12.50;99.90;;;;;;5086422;28;20357;-79
2023/03/25 12:54:11;;;;;;;14.33;3.20;;;12.60;99.90;;;;;;5091017;28;20646;-79
2023/03/25 12:56:48;;;;;;;17.93;3.17;;;12.50;99.90;;;;;;5092931;28;20772;-79
2023/03/25 12:59:31;;;;;;;15.50;2.87;;;12.50;99.90;;;;;;5091836;28;20282;-78
2023/03/25 13:02:05;;;;;;;15.20;4.47;;;12.40;99.90;;;;;;5089809;28;20360;-79
2023/03/25 13:04:56;;;;;;;15.07;3.30;;;12.30;99.90;;;;;;5092768;28;20278;-76